Time,TemperatureF,DewpointF,PressureIn,WindDirection,WindDirectionDegrees,WindSpeedMPH,WindSpeedGustMPH,Humidity,HourlyPrecipIn,Conditions,Clouds,dailyrainin,SoftwareType,DateUTC
2013-01-06 00:00:00,29.1,23.7,30.19,West,269,0.0,1.0,80,0.00,,---,0.01,VWS V14.01,2013-01-06 05:00:00,
2013-01-06 00:01:00,29.0,23.6,30.19,West,269,0.0,0.0,80,0.00,,---,0.00,VWS V14.01,2013-01-06 05:01:00,
2013-01-06 00:03:00,29.0,23.6,30.19,West,269,0.0,0.0,80,0.00,,---,0.00,VWS V14.01,2013-01-06 05:03:00,
2013-01-06 00:06:00,29.0,23.6,30.19,West,269,0.0,0.0,80,0.00,,---,0.00,VWS V14.01,2013-01-06 05:06:00,
2013-01-06 00:11:00,29.0,23.3,30.19,West,269,0.0,0.0,79,0.00,,---,0.00,VWS V14.01,2013-01-06 05:11:00,
2013-01-06 00:16:00,29.1,23.4,30.19,West,269,0.0,0.0,79,0.00,,---,0.00,VWS V14.01,2013-01-06 05:16:00,
2013-01-06 00:21:00,29.2,23.5,30.19,West,269,0.0,0.0,79,0.00,,---,0.00,VWS V14.01,2013-01-06 05:21:00,
2013-01-06 00:26:00,29.3,23.6,30.19,West,269,0.0,2.0,79,0.00,,---,0.00,VWS V14.01,2013-01-06 05:26:00,
2013-01-06 00:30:00,29.0,23.9,30.19,WSW,238,0.0,2.0,81,0.00,,---,0.00,VWS V14.01,2013-01-06 05:30:00,
2013-01-06 00:31:00,29.3,23.9,30.19,West,269,1.0,1.0,80,0.00,,---,0.00,VWS V14.01,2013-01-06 05:31:00,
2013-01-06 00:36:00,29.3,23.9,30.19,WSW,238,0.0,2.0,80,0.00,,---,0.00,VWS V14.01,2013-01-06 05:36:00,
2013-01-06 00:41:00,29.4,23.7,30.19,WSW,238,0.0,2.0,79,0.00,,---,0.00,VWS V14.01,2013-01-06 05:41:00,
2013-01-06 00:46:00,29.3,23.6,30.19,WSW,238,0.0,2.0,79,0.00,,---,0.00,VWS V14.01,2013-01-06 05:46:00,
2013-01-06 00:51:00,29.3,23.9,30.20,WSW,238,0.0,2.0,80,0.00,,---,0.00,VWS V14.01,2013-01-06 05:51:00,
2013-01-06 00:56:00,29.3,23.9,30.18,WSW,238,0.0,2.0,80,0.00,,---,0.00,VWS V14.01,2013-01-06 05:56:00,
2013-01-06 01:00:00,29.2,23.8,30.17,WSW,238,0.0,2.0,80,0.00,,---,0.00,VWS V14.01,2013-01-06 06:00:00,
2013-01-06 01:02:00,29.2,23.8,30.18,WSW,238,0.0,0.0,80,0.00,,---,0.00,VWS V14.01,2013-01-06 06:02:00,
2013-01-06 01:07:00,29.2,23.8,30.19,WSW,238,0.0,0.0,80,0.00,,---,0.00,VWS V14.01,2013-01-06 06:07:00,
2013-01-06 01:12:00,29.1,24.0,30.20,WSW,238,0.0,1.0,81,0.00,,---,0.00,VWS V14.01,2013-01-06 06:12:00,
2013-01-06 01:17:00,29.0,23.9,30.19,WSW,238,0.0,1.0,81,0.00,,---,0.00,VWS V14.01,2013-01-06 06:17:00,
2013-01-06 01:22:00,29.0,23.9,30.18,WSW,238,0.0,1.0,81,0.00,,---,0.00,VWS V14.01,2013-01-06 06:22:00,
2013-01-06 01:27:00,29.0,23.9,30.19,WSW,238,1.0,2.0,81,0.00,,---,0.00,VWS V14.01,2013-01-06 06:27:00,
2013-01-06 01:30:00,29.2,23.8,30.16,SW,225,0.0,2.0,80,0.00,,---,0.00,VWS V14.01,2013-01-06 06:30:00,
2013-01-06 01:32:00,29.0,23.9,30.18,WSW,238,0.0,1.0,81,0.00,,---,0.00,VWS V14.01,2013-01-06 06:32:00,
2013-01-06 01:37:00,29.1,23.7,30.17,WSW,238,0.0,2.0,80,0.00,,---,0.00,VWS V14.01,2013-01-06 06:37:00,
2013-01-06 01:42:00,29.2,23.8,30.17,WSW,238,0.0,2.0,80,0.00,,---,0.00,VWS V14.01,2013-01-06 06:42:00,
2013-01-06 01:47:00,29.3,23.9,30.17,WSW,238,0.0,2.0,80,0.00,,---,0.00,VWS V14.01,2013-01-06 06:47:00,
2013-01-06 01:52:00,29.3,23.9,30.17,WSW,238,0.0,2.0,80,0.00,,---,0.00,VWS V14.01,2013-01-06 06:52:00,
2013-01-06 01:57:00,29.2,23.8,30.17,WSW,238,0.0,2.0,80,0.00,,---,0.00,VWS V14.01,2013-01-06 06:57:00,
2013-01-06 02:00:00,28.9,23.5,30.15,SW,225,0.0,1.0,80,0.00,,---,0.00,VWS V14.01,2013-01-06 07:00:00,
2013-01-06 02:02:00,29.2,23.8,30.17,WSW,238,0.0,1.0,80,0.00,,---,0.00,VWS V14.01,2013-01-06 07:02:00,
2013-01-06 02:07:00,29.1,23.7,30.17,WSW,238,0.0,1.0,80,0.00,,---,0.00,VWS V14.01,2013-01-06 07:07:00,
2013-01-06 02:13:00,29.1,23.7,30.17,WSW,238,0.0,1.0,80,0.00,,---,0.00,VWS V14.01,2013-01-06 07:13:00,
2013-01-06 02:18:00,29.2,23.8,30.17,WSW,238,0.0,1.0,80,0.00,,---,0.00,VWS V14.01,2013-01-06 07:18:00,
2013-01-06 02:23:00,29.2,23.8,30.16,WSW,238,1.0,1.0,80,0.00,,---,0.00,VWS V14.01,2013-01-06 07:23:00,
2013-01-06 02:28:00,29.2,23.8,30.15,SW,225,0.0,2.0,80,0.00,,---,0.00,VWS V14.01,2013-01-06 07:28:00,
2013-01-06 02:30:00,29.6,24.5,30.13,South,184,2.0,3.0,81,0.00,,---,0.00,VWS V14.01,2013-01-06 07:30:00,
2013-01-06 02:33:00,29.1,23.7,30.17,SW,225,0.0,1.0,80,0.00,,---,0.00,VWS V14.01,2013-01-06 07:33:00,
2013-01-06 02:38:00,29.1,23.7,30.15,SW,225,0.0,1.0,80,0.00,,---,0.00,VWS V14.01,2013-01-06 07:38:00,
2013-01-06 02:43:00,29.1,24.0,30.15,SW,225,0.0,1.0,81,0.00,,---,0.00,VWS V14.01,2013-01-06 07:43:00,
2013-01-06 02:48:00,29.0,23.9,30.15,SW,225,0.0,1.0,81,0.00,,---,0.00,VWS V14.01,2013-01-06 07:48:00,
2013-01-06 02:53:00,29.0,23.9,30.15,SW,225,0.0,1.0,81,0.00,,---,0.00,VWS V14.01,2013-01-06 07:53:00,
2013-01-06 02:58:00,28.9,23.5,30.15,SW,225,0.0,1.0,80,0.00,,---,0.00,VWS V14.01,2013-01-06 07:58:00,
2013-01-06 03:00:00,29.6,25.4,30.12,South,182,0.0,3.0,84,0.00,,---,0.00,VWS V14.01,2013-01-06 08:00:00,
2013-01-06 03:03:00,29.0,23.9,30.16,SW,225,0.0,0.0,81,0.00,,---,0.00,VWS V14.01,2013-01-06 08:03:00,
2013-01-06 03:08:00,29.0,23.6,30.15,SW,225,0.0,0.0,80,0.00,,---,0.00,VWS V14.01,2013-01-06 08:08:00,
2013-01-06 03:14:00,29.1,23.7,30.14,SW,225,0.0,1.0,80,0.00,,---,0.00,VWS V14.01,2013-01-06 08:14:00,
2013-01-06 03:19:00,29.2,23.8,30.15,SW,225,1.0,2.0,80,0.00,,---,0.00,VWS V14.01,2013-01-06 08:19:00,
2013-01-06 03:24:00,29.4,24.0,30.14,SW,225,0.0,2.0,80,0.00,,---,0.00,VWS V14.01,2013-01-06 08:24:00,
2013-01-06 03:29:00,29.6,24.2,30.14,South,182,0.0,3.0,80,0.00,,---,0.00,VWS V14.01,2013-01-06 08:29:00,
2013-01-06 03:30:00,29.3,25.4,30.10,SSW,207,0.0,2.0,85,0.00,,---,0.00,VWS V14.01,2013-01-06 08:30:00,
2013-01-06 03:34:00,29.7,24.6,30.13,South,171,1.0,3.0,81,0.00,,---,0.00,VWS V14.01,2013-01-06 08:34:00,
2013-01-06 03:39:00,29.8,24.7,30.13,South,182,0.0,3.0,81,0.00,,---,0.00,VWS V14.01,2013-01-06 08:39:00,
2013-01-06 03:44:00,29.7,24.9,30.12,South,182,0.0,3.0,82,0.00,,---,0.00,VWS V14.01,2013-01-06 08:44:00,
2013-01-06 03:49:00,29.7,24.9,30.12,South,182,0.0,3.0,82,0.00,,---,0.00,VWS V14.01,2013-01-06 08:49:00,
2013-01-06 03:54:00,29.6,25.1,30.12,South,182,0.0,3.0,83,0.00,,---,0.00,VWS V14.01,2013-01-06 08:54:00,
2013-01-06 03:59:00,29.6,25.4,30.12,South,182,0.0,3.0,84,0.00,,---,0.00,VWS V14.01,2013-01-06 08:59:00,
2013-01-06 04:00:00,29.4,25.7,30.09,South,170,0.0,3.0,86,0.00,,---,0.00,VWS V14.01,2013-01-06 09:00:00,
2013-01-06 04:04:00,29.6,25.4,30.12,South,182,0.0,1.0,84,0.00,,---,0.00,VWS V14.01,2013-01-06 09:04:00,
2013-01-06 04:09:00,29.5,25.3,30.11,South,182,0.0,1.0,84,0.00,,---,0.00,VWS V14.01,2013-01-06 09:09:00,
2013-01-06 04:15:00,29.4,25.2,30.11,SSW,207,0.0,2.0,84,0.00,,---,0.00,VWS V14.01,2013-01-06 09:15:00,
2013-01-06 04:20:00,29.4,25.2,30.11,SSW,207,0.0,2.0,84,0.00,,---,0.00,VWS V14.01,2013-01-06 09:20:00,
2013-01-06 04:25:00,29.3,25.1,30.11,SSW,207,0.0,2.0,84,0.00,,---,0.00,VWS V14.01,2013-01-06 09:25:00,
2013-01-06 04:30:00,29.3,25.4,30.10,SSW,207,0.0,2.0,85,0.00,,---,0.00,VWS V14.01,2013-01-06 09:30:00,
2013-01-06 04:35:00,29.3,25.4,30.10,SSW,207,0.0,2.0,85,0.00,,---,0.00,VWS V14.01,2013-01-06 09:35:00,
2013-01-06 04:40:00,29.3,25.4,30.10,SSW,207,0.0,2.0,85,0.00,,---,0.00,VWS V14.01,2013-01-06 09:40:00,
2013-01-06 04:45:00,29.4,25.5,30.09,SSW,207,0.0,2.0,85,0.00,,---,0.00,VWS V14.01,2013-01-06 09:45:00,
2013-01-06 04:50:00,29.4,25.7,30.09,SSW,207,0.0,3.0,86,0.00,,---,0.00,VWS V14.01,2013-01-06 09:50:00,
2013-01-06 04:55:00,29.4,25.7,30.09,South,170,0.0,3.0,86,0.00,,---,0.00,VWS V14.01,2013-01-06 09:55:00,
2013-01-06 05:00:00,29.4,25.7,30.10,South,170,0.0,0.0,86,0.00,,---,0.00,VWS V14.01,2013-01-06 10:00:00,
2013-01-06 05:05:00,29.3,25.9,30.09,South,170,1.0,1.0,87,0.00,,---,0.00,VWS V14.01,2013-01-06 10:05:00,
2013-01-06 05:11:00,29.3,25.9,30.10,South,170,0.0,2.0,87,0.00,,---,0.00,VWS V14.01,2013-01-06 10:11:00,
2013-01-06 05:16:00,29.3,25.9,30.10,South,170,1.0,2.0,87,0.00,,---,0.00,VWS V14.01,2013-01-06 10:16:00,
2013-01-06 05:21:00,29.3,26.2,30.10,South,170,0.0,2.0,88,0.00,,---,0.00,VWS V14.01,2013-01-06 10:21:00,
2013-01-06 05:26:00,29.3,26.2,30.09,South,170,0.0,2.0,88,0.00,,---,0.00,VWS V14.01,2013-01-06 10:26:00,
2013-01-06 05:30:00,29.2,27.2,30.09,SW,214,0.0,3.0,92,0.00,,---,0.00,VWS V14.01,2013-01-06 10:30:00,
2013-01-06 05:31:00,29.3,26.5,30.09,SW,234,0.0,1.0,89,0.00,,---,0.00,VWS V14.01,2013-01-06 10:31:00,
2013-01-06 05:36:00,29.3,26.5,30.09,SSW,200,1.0,3.0,89,0.00,,---,0.00,VWS V14.01,2013-01-06 10:36:00,
2013-01-06 05:41:00,29.3,26.5,30.09,SSW,200,0.0,3.0,89,0.00,,---,0.00,VWS V14.01,2013-01-06 10:41:00,
2013-01-06 05:46:00,29.2,26.4,30.10,SSW,200,0.0,3.0,89,0.00,,---,0.00,VWS V14.01,2013-01-06 10:46:00,
2013-01-06 05:51:00,29.2,26.6,30.09,SSW,200,0.0,3.0,90,0.00,,---,0.00,VWS V14.01,2013-01-06 10:51:00,
2013-01-06 05:56:00,29.2,26.6,30.09,SSW,200,0.0,3.0,90,0.00,,---,0.00,VWS V14.01,2013-01-06 10:56:00,
2013-01-06 06:00:00,29.5,27.7,30.09,SW,219,0.0,3.0,93,0.00,,---,0.00,VWS V14.01,2013-01-06 11:00:00,
2013-01-06 06:01:00,29.2,26.6,30.09,SSW,200,0.0,0.0,90,0.00,,---,0.00,VWS V14.01,2013-01-06 11:01:00,
2013-01-06 06:06:00,29.2,26.9,30.09,SSW,200,0.0,2.0,91,0.00,,---,0.00,VWS V14.01,2013-01-06 11:06:00,
2013-01-06 06:11:00,29.3,27.0,30.09,SSW,200,0.0,2.0,91,0.00,,---,0.00,VWS V14.01,2013-01-06 11:11:00,
2013-01-06 06:16:00,29.3,27.0,30.09,WSW,246,0.0,3.0,91,0.00,,---,0.00,VWS V14.01,2013-01-06 11:16:00,
2013-01-06 06:21:00,29.3,27.3,30.09,South,189,0.0,3.0,92,0.00,,---,0.00,VWS V14.01,2013-01-06 11:21:00,
2013-01-06 06:26:00,29.3,27.3,30.09,SW,214,0.0,3.0,92,0.00,,---,0.00,VWS V14.01,2013-01-06 11:26:00,
2013-01-06 06:30:00,29.5,28.0,30.09,SW,219,0.0,2.0,94,0.00,,---,0.00,VWS V14.01,2013-01-06 11:30:00,
2013-01-06 06:32:00,29.3,27.3,30.09,SW,214,0.0,1.0,92,0.00,,---,0.00,VWS V14.01,2013-01-06 11:32:00,
2013-01-06 06:37:00,29.3,27.3,30.09,SW,214,0.0,3.0,92,0.00,,---,0.00,VWS V14.01,2013-01-06 11:37:00,
2013-01-06 06:42:00,29.4,27.4,30.09,SW,214,0.0,3.0,92,0.00,,---,0.00,VWS V14.01,2013-01-06 11:42:00,
2013-01-06 06:47:00,29.4,27.6,30.09,WSW,240,2.0,3.0,93,0.00,,---,0.00,VWS V14.01,2013-01-06 11:47:00,
2013-01-06 06:52:00,29.4,27.6,30.09,WSW,240,3.0,3.0,93,0.00,,---,0.00,VWS V14.01,2013-01-06 11:52:00,
2013-01-06 06:57:00,29.5,27.7,30.09,SW,219,2.0,3.0,93,0.00,,---,0.00,VWS V14.01,2013-01-06 11:57:00,
2013-01-06 07:00:00,29.5,28.0,30.08,SW,219,0.0,1.0,94,0.00,,---,0.00,VWS V14.01,2013-01-06 12:00:00,
2013-01-06 07:02:00,29.5,27.7,30.09,SW,219,2.0,2.0,93,0.00,,---,0.00,VWS V14.01,2013-01-06 12:02:00,
2013-01-06 07:07:00,29.5,27.7,30.09,SW,219,0.0,2.0,93,0.00,,---,0.00,VWS V14.01,2013-01-06 12:07:00,
2013-01-06 07:12:00,29.5,27.7,30.09,SW,219,0.0,2.0,93,0.00,,---,0.00,VWS V14.01,2013-01-06 12:12:00,
2013-01-06 07:17:00,29.5,27.7,30.09,SW,219,0.0,2.0,93,0.00,,---,0.00,VWS V14.01,2013-01-06 12:17:00,
2013-01-06 07:22:00,29.5,28.0,30.09,SW,219,0.0,2.0,94,0.00,,---,0.00,VWS V14.01,2013-01-06 12:22:00,
2013-01-06 07:28:00,29.5,28.0,30.09,SW,219,1.0,2.0,94,0.00,,---,0.00,VWS V14.01,2013-01-06 12:28:00,
2013-01-06 07:30:00,30.0,28.5,30.09,SW,219,0.0,1.0,94,0.00,,---,0.00,VWS V14.01,2013-01-06 12:30:00,
2013-01-06 07:33:00,29.6,28.1,30.09,SW,219,0.0,1.0,94,0.00,,---,0.00,VWS V14.01,2013-01-06 12:33:00,
2013-01-06 07:38:00,29.6,28.1,30.09,SW,219,0.0,1.0,94,0.00,,---,0.00,VWS V14.01,2013-01-06 12:38:00,
2013-01-06 07:43:00,29.6,28.1,30.09,SW,219,0.0,1.0,94,0.00,,---,0.00,VWS V14.01,2013-01-06 12:43:00,
2013-01-06 07:48:00,29.6,28.1,30.09,SW,219,0.0,1.0,94,0.00,,---,0.00,VWS V14.01,2013-01-06 12:48:00,
2013-01-06 07:53:00,29.6,28.1,30.09,SW,219,0.0,1.0,94,0.00,,---,0.00,VWS V14.01,2013-01-06 12:53:00,
2013-01-06 07:58:00,29.6,28.1,30.08,SW,219,0.0,1.0,94,0.00,,---,0.00,VWS V14.01,2013-01-06 12:58:00,
2013-01-06 08:00:00,30.5,29.0,30.08,SW,218,0.0,3.0,94,0.00,,---,0.00,VWS V14.01,2013-01-06 13:00:00,
2013-01-06 08:03:00,29.5,28.0,30.09,SW,219,0.0,0.0,94,0.00,,---,0.00,VWS V14.01,2013-01-06 13:03:00,
2013-01-06 08:08:00,29.6,28.1,30.09,SW,219,0.0,1.0,94,0.00,,---,0.00,VWS V14.01,2013-01-06 13:08:00,
2013-01-06 08:13:00,29.6,28.1,30.09,SW,219,0.0,1.0,94,0.00,,---,0.00,VWS V14.01,2013-01-06 13:13:00,
2013-01-06 08:18:00,29.7,28.2,30.09,SW,219,0.0,1.0,94,0.00,,---,0.00,VWS V14.01,2013-01-06 13:18:00,
2013-01-06 08:23:00,29.8,28.3,30.09,SW,219,0.0,1.0,94,0.00,,---,0.00,VWS V14.01,2013-01-06 13:23:00,
2013-01-06 08:28:00,29.9,28.4,30.09,SW,219,0.0,1.0,94,0.00,,---,0.00,VWS V14.01,2013-01-06 13:28:00,
2013-01-06 08:30:00,30.8,29.0,30.09,SW,217,0.0,3.0,93,0.00,,---,0.00,VWS V14.01,2013-01-06 13:30:00,
2013-01-06 08:33:00,30.1,28.6,30.09,SW,219,0.0,2.0,94,0.00,,---,0.00,VWS V14.01,2013-01-06 13:33:00,
2013-01-06 08:38:00,30.1,28.6,30.09,SW,219,0.0,2.0,94,0.00,,---,0.00,VWS V14.01,2013-01-06 13:38:00,
2013-01-06 08:43:00,30.2,28.7,30.09,SW,219,1.0,3.0,94,0.00,,---,0.00,VWS V14.01,2013-01-06 13:43:00,
2013-01-06 08:49:00,30.3,28.8,30.09,SW,219,1.0,3.0,94,0.00,,---,0.00,VWS V14.01,2013-01-06 13:49:00,
2013-01-06 08:54:00,30.3,28.8,30.09,SW,219,1.0,3.0,94,0.00,,---,0.00,VWS V14.01,2013-01-06 13:54:00,
2013-01-06 08:59:00,30.4,28.9,30.08,SW,218,0.0,3.0,94,0.00,,---,0.00,VWS V14.01,2013-01-06 13:59:00,
2013-01-06 09:00:00,31.7,29.6,30.09,SW,217,0.0,3.0,92,0.00,,---,0.00,VWS V14.01,2013-01-06 14:00:00,
2013-01-06 09:04:00,30.5,28.7,30.08,SW,218,0.0,2.0,93,0.00,,---,0.00,VWS V14.01,2013-01-06 14:04:00,
2013-01-06 09:09:00,30.5,28.7,30.08,SW,217,2.0,3.0,93,0.00,,---,0.00,VWS V14.01,2013-01-06 14:09:00,
2013-01-06 09:14:00,30.5,28.7,30.08,SW,217,1.0,3.0,93,0.00,,---,0.00,VWS V14.01,2013-01-06 14:14:00,
2013-01-06 09:19:00,30.6,28.8,30.09,SW,217,1.0,3.0,93,0.00,,---,0.00,VWS V14.01,2013-01-06 14:19:00,
2013-01-06 09:24:00,30.7,28.9,30.09,SW,217,0.0,3.0,93,0.00,,---,0.00,VWS V14.01,2013-01-06 14:24:00,
2013-01-06 09:29:00,30.8,29.0,30.09,SW,217,0.0,3.0,93,0.00,,---,0.00,VWS V14.01,2013-01-06 14:29:00,
2013-01-06 09:30:00,32.3,29.4,30.08,NW,313,2.0,4.0,89,0.00,,---,0.00,VWS V14.01,2013-01-06 14:30:00,
2013-01-06 09:34:00,30.9,29.1,30.09,SW,217,0.0,0.0,93,0.00,,---,0.00,VWS V14.01,2013-01-06 14:34:00,
2013-01-06 09:39:00,30.9,29.1,30.09,SW,217,1.0,2.0,93,0.00,,---,0.00,VWS V14.01,2013-01-06 14:39:00,
2013-01-06 09:44:00,31.0,29.2,30.09,SW,217,0.0,3.0,93,0.00,,---,0.00,VWS V14.01,2013-01-06 14:44:00,
2013-01-06 09:50:00,31.2,29.4,30.09,SW,217,0.0,3.0,93,0.00,,---,0.00,VWS V14.01,2013-01-06 14:50:00,
2013-01-06 09:55:00,31.5,29.7,30.08,SW,217,1.0,3.0,93,0.00,,---,0.00,VWS V14.01,2013-01-06 14:55:00,
2013-01-06 10:00:00,31.7,29.6,30.09,SW,217,0.0,3.0,92,0.00,,---,0.00,VWS V14.01,2013-01-06 15:00:00,
2013-01-06 10:05:00,31.8,29.5,30.08,West,261,0.0,4.0,91,0.00,,---,0.00,VWS V14.01,2013-01-06 15:05:00,
2013-01-06 10:10:00,31.9,29.3,30.08,West,265,0.0,4.0,90,0.00,,---,0.00,VWS V14.01,2013-01-06 15:10:00,
2013-01-06 10:15:00,32.0,29.4,30.08,WSW,258,0.0,4.0,90,0.00,,---,0.00,VWS V14.01,2013-01-06 15:15:00,
2013-01-06 10:20:00,32.2,29.6,30.08,WSW,258,0.0,4.0,90,0.00,,---,0.00,VWS V14.01,2013-01-06 15:20:00,
2013-01-06 10:25:00,32.2,29.3,30.08,SW,219,1.0,4.0,89,0.00,,---,0.00,VWS V14.01,2013-01-06 15:25:00,
2013-01-06 10:30:00,32.3,29.4,30.08,NW,313,1.0,2.0,89,0.00,,---,0.00,VWS V14.01,2013-01-06 15:30:00,
2013-01-06 10:35:00,32.4,29.5,30.08,NW,313,0.0,2.0,89,0.00,,---,0.00,VWS V14.01,2013-01-06 15:35:00,
2013-01-06 10:40:00,32.5,29.4,30.07,West,273,3.0,4.0,88,0.00,,---,0.00,VWS V14.01,2013-01-06 15:40:00,
2013-01-06 10:45:00,32.7,29.5,30.06,West,273,2.0,4.0,88,0.00,,---,0.00,VWS V14.01,2013-01-06 15:45:00,
2013-01-06 10:50:00,32.9,29.5,30.06,NW,324,1.0,4.0,87,0.00,,---,0.00,VWS V14.01,2013-01-06 15:50:00,
2013-01-06 10:56:00,33.3,29.6,30.06,WNW,292,6.0,6.0,86,0.00,,---,0.00,VWS V14.01,2013-01-06 15:56:00,
2013-01-06 11:00:00,36.7,29.9,30.01,West,281,3.0,6.0,76,0.00,,---,0.00,VWS V14.01,2013-01-06 16:00:00,
2013-01-06 11:01:00,33.7,29.7,30.06,NW,324,2.0,2.0,85,0.00,,---,0.00,VWS V14.01,2013-01-06 16:01:00,
2013-01-06 11:06:00,33.9,29.6,30.05,NNW,336,2.0,5.0,84,0.00,,---,0.00,VWS V14.01,2013-01-06 16:06:00,
2013-01-06 11:11:00,34.2,29.6,30.05,WSW,253,1.0,5.0,83,0.00,,---,0.00,VWS V14.01,2013-01-06 16:11:00,
2013-01-06 11:16:00,34.4,29.8,30.05,SW,233,2.0,6.0,83,0.00,,---,0.00,VWS V14.01,2013-01-06 16:16:00,
2013-01-06 11:21:00,34.6,29.7,30.05,SW,233,2.0,6.0,82,0.00,,---,0.00,VWS V14.01,2013-01-06 16:21:00,
2013-01-06 11:26:00,35.0,29.8,30.04,WNW,288,0.0,6.0,81,0.00,,---,0.00,VWS V14.01,2013-01-06 16:26:00,
2013-01-06 11:30:00,38.0,30.1,30.00,West,268,3.0,7.0,73,0.00,,---,0.00,VWS V14.01,2013-01-06 16:30:00,
2013-01-06 11:31:00,35.3,30.1,30.04,NW,321,1.0,3.0,81,0.00,,---,0.00,VWS V14.01,2013-01-06 16:31:00,
2013-01-06 11:36:00,35.5,30.0,30.03,West,273,1.0,5.0,80,0.00,,---,0.00,VWS V14.01,2013-01-06 16:36:00,
2013-01-06 11:41:00,35.8,30.2,30.03,West,273,2.0,5.0,80,0.00,,---,0.00,VWS V14.01,2013-01-06 16:41:00,
2013-01-06 11:46:00,36.1,29.9,30.02,West,265,1.0,5.0,78,0.00,,---,0.00,VWS V14.01,2013-01-06 16:46:00,
2013-01-06 11:52:00,36.5,30.3,30.02,WNW,293,3.0,5.0,78,0.00,,---,0.00,VWS V14.01,2013-01-06 16:52:00,
2013-01-06 11:57:00,36.7,29.9,30.01,NNW,331,4.0,5.0,76,0.00,,---,0.00,VWS V14.01,2013-01-06 16:57:00,
2013-01-06 12:00:00,38.9,30.3,29.99,WSW,243,1.0,6.0,71,0.00,,---,0.00,VWS V14.01,2013-01-06 17:00:00,
2013-01-06 12:02:00,36.7,29.9,30.01,WSW,249,3.0,4.0,76,0.00,,---,0.00,VWS V14.01,2013-01-06 17:02:00,
2013-01-06 12:07:00,37.0,30.1,30.01,West,272,3.0,4.0,76,0.00,,---,0.00,VWS V14.01,2013-01-06 17:07:00,
2013-01-06 12:12:00,37.3,29.8,30.01,WNW,291,5.0,6.0,74,0.00,,---,0.00,VWS V14.01,2013-01-06 17:12:00,
2013-01-06 12:17:00,37.5,30.0,30.00,SW,229,2.0,6.0,74,0.00,,---,0.00,VWS V14.01,2013-01-06 17:17:00,
2013-01-06 12:22:00,37.7,29.8,30.00,WNW,292,6.0,7.0,73,0.00,,---,0.00,VWS V14.01,2013-01-06 17:22:00,
2013-01-06 12:27:00,37.9,30.0,30.00,SW,232,5.0,7.0,73,0.00,,---,0.00,VWS V14.01,2013-01-06 17:27:00,
2013-01-06 12:30:00,39.3,30.0,29.98,West,272,3.0,6.0,69,0.00,,---,0.00,VWS V14.01,2013-01-06 17:30:00,
2013-01-06 12:32:00,38.0,30.1,30.00,West,263,6.0,6.0,73,0.00,,---,0.00,VWS V14.01,2013-01-06 17:32:00,
2013-01-06 12:37:00,38.0,30.1,30.00,WSW,258,2.0,6.0,73,0.00,,---,0.00,VWS V14.01,2013-01-06 17:37:00,
2013-01-06 12:43:00,38.2,30.0,30.00,SW,225,2.0,6.0,72,0.00,,---,0.00,VWS V14.01,2013-01-06 17:43:00,
2013-01-06 12:48:00,38.4,30.2,30.00,WNW,286,3.0,6.0,72,0.00,,---,0.00,VWS V14.01,2013-01-06 17:48:00,
2013-01-06 12:53:00,38.6,30.4,29.99,West,274,1.0,6.0,72,0.00,,---,0.00,VWS V14.01,2013-01-06 17:53:00,
2013-01-06 12:58:00,38.8,30.2,29.99,SW,232,1.0,6.0,71,0.00,,---,0.00,VWS V14.01,2013-01-06 17:58:00,
2013-01-06 13:00:00,39.7,30.4,29.96,WSW,258,5.0,6.0,69,0.01,,---,0.01,VWS V14.01,2013-01-06 18:00:00,
2013-01-06 13:03:00,38.9,30.3,29.99,SW,221,3.0,4.0,71,0.00,,---,0.00,VWS V14.01,2013-01-06 18:03:00,
2013-01-06 13:08:00,38.9,30.3,29.99,West,267,4.0,6.0,71,0.00,,---,0.00,VWS V14.01,2013-01-06 18:08:00,
2013-01-06 13:13:00,39.0,30.4,29.98,WSW,255,1.0,6.0,71,0.00,,---,0.00,VWS V14.01,2013-01-06 18:13:00,
2013-01-06 13:18:00,39.2,30.6,29.98,West,265,0.0,6.0,71,0.00,,---,0.00,VWS V14.01,2013-01-06 18:18:00,
2013-01-06 13:23:00,39.4,30.4,29.98,WNW,284,2.0,6.0,70,0.00,,---,0.00,VWS V14.01,2013-01-06 18:23:00,
2013-01-06 13:28:00,39.4,30.4,29.98,NW,316,0.0,6.0,70,0.00,,---,0.00,VWS V14.01,2013-01-06 18:28:00,
2013-01-06 13:30:00,39.8,30.5,29.97,West,268,2.0,7.0,69,0.01,,---,0.01,VWS V14.01,2013-01-06 18:30:00,
2013-01-06 13:33:00,39.1,30.2,29.98,WNW,300,0.0,5.0,70,0.00,,---,0.00,VWS V14.01,2013-01-06 18:33:00,
2013-01-06 13:38:00,39.0,30.1,29.97,WSW,254,1.0,5.0,70,0.00,,---,0.00,VWS V14.01,2013-01-06 18:38:00,
2013-01-06 13:43:00,39.4,30.4,29.97,WSW,252,4.0,5.0,70,0.00,,---,0.00,VWS V14.01,2013-01-06 18:43:00,
2013-01-06 13:48:00,39.7,30.4,29.96,WNW,287,3.0,6.0,69,0.00,,---,0.00,VWS V14.01,2013-01-06 18:48:00,
2013-01-06 13:54:00,39.7,30.0,29.96,WSW,254,6.0,6.0,68,0.01,,---,0.01,VWS V14.01,2013-01-06 18:54:00,
2013-01-06 13:59:00,39.7,30.4,29.96,WSW,241,1.0,6.0,69,0.01,,---,0.01,VWS V14.01,2013-01-06 18:59:00,
2013-01-06 14:00:00,39.1,30.2,29.97,West,279,1.0,7.0,70,0.01,,---,0.01,VWS V14.01,2013-01-06 19:00:00,
2013-01-06 14:04:00,39.8,30.1,29.96,WSW,249,4.0,5.0,68,0.01,,---,0.01,VWS V14.01,2013-01-06 19:04:00,
2013-01-06 14:09:00,39.7,30.0,29.97,SW,223,1.0,7.0,68,0.01,,---,0.01,VWS V14.01,2013-01-06 19:09:00,
2013-01-06 14:14:00,39.9,30.2,29.97,West,280,3.0,7.0,68,0.01,,---,0.01,VWS V14.01,2013-01-06 19:14:00,
2013-01-06 14:19:00,39.9,29.9,29.96,West,276,3.0,7.0,67,0.01,,---,0.01,VWS V14.01,2013-01-06 19:19:00,
2013-01-06 14:24:00,39.7,30.0,29.97,WNW,299,0.0,7.0,68,0.01,,---,0.01,VWS V14.01,2013-01-06 19:24:00,
2013-01-06 14:29:00,39.8,30.5,29.97,West,268,0.0,7.0,69,0.01,,---,0.01,VWS V14.01,2013-01-06 19:29:00,
2013-01-06 14:30:00,38.7,29.8,29.97,WNW,300,1.0,6.0,70,0.00,,---,0.01,VWS V14.01,2013-01-06 19:30:00,
2013-01-06 14:34:00,39.7,30.0,29.97,WSW,239,0.0,6.0,68,0.01,,---,0.01,VWS V14.01,2013-01-06 19:34:00,
2013-01-06 14:39:00,39.5,29.8,29.97,West,263,3.0,6.0,68,0.01,,---,0.01,VWS V14.01,2013-01-06 19:39:00,
2013-01-06 14:44:00,39.4,30.1,29.97,WNW,289,2.0,6.0,69,0.01,,---,0.01,VWS V14.01,2013-01-06 19:44:00,
2013-01-06 14:50:00,39.3,30.0,29.97,West,260,1.0,6.0,69,0.01,,---,0.01,VWS V14.01,2013-01-06 19:50:00,
2013-01-06 14:55:00,39.2,29.9,29.97,WNW,297,5.0,7.0,69,0.01,,---,0.01,VWS V14.01,2013-01-06 19:55:00,
2013-01-06 15:00:00,38.5,29.6,29.97,West,267,3.0,5.0,70,0.00,,---,0.01,VWS V14.01,2013-01-06 20:00:00,
2013-01-06 15:01:00,39.1,30.2,29.97,WSW,248,0.0,4.0,70,0.00,,---,0.01,VWS V14.01,2013-01-06 20:01:00,
2013-01-06 15:06:00,38.9,30.0,29.97,West,276,1.0,4.0,70,0.00,,---,0.01,VWS V14.01,2013-01-06 20:06:00,
2013-01-06 15:11:00,38.9,30.0,29.97,West,279,1.0,4.0,70,0.00,,---,0.01,VWS V14.01,2013-01-06 20:11:00,
2013-01-06 15:13:00,38.9,30.0,29.97,West,279,0.0,4.0,70,0.00,,---,0.01,VWS V14.01,2013-01-06 20:13:00,
2013-01-06 15:18:00,38.9,30.0,29.97,WSW,250,4.0,5.0,70,0.00,,---,0.01,VWS V14.01,2013-01-06 20:18:00,
2013-01-06 15:23:00,38.8,29.9,29.97,WSW,247,0.0,5.0,70,0.00,,---,0.01,VWS V14.01,2013-01-06 20:23:00,
2013-01-06 15:28:00,38.7,30.1,29.97,SW,236,6.0,6.0,71,0.00,,---,0.01,VWS V14.01,2013-01-06 20:28:00,
2013-01-06 15:30:00,38.2,29.3,29.98,WNW,288,0.0,5.0,70,0.00,,---,0.01,VWS V14.01,2013-01-06 20:30:00,
2013-01-06 15:33:00,38.7,29.8,29.97,WSW,248,2.0,3.0,70,0.00,,---,0.01,VWS V14.01,2013-01-06 20:33:00,
2013-01-06 15:38:00,38.7,29.8,29.97,West,265,1.0,5.0,70,0.00,,---,0.01,VWS V14.01,2013-01-06 20:38:00,
2013-01-06 15:43:00,38.7,29.8,29.97,WSW,257,0.0,5.0,70,0.00,,---,0.01,VWS V14.01,2013-01-06 20:43:00,
2013-01-06 15:48:00,38.6,30.0,29.97,WSW,257,0.0,5.0,71,0.00,,---,0.01,VWS V14.01,2013-01-06 20:48:00,
2013-01-06 15:53:00,38.5,29.9,29.97,WSW,257,1.0,5.0,71,0.00,,---,0.01,VWS V14.01,2013-01-06 20:53:00,
2013-01-06 15:59:00,38.5,29.9,29.97,WNW,288,2.0,5.0,71,0.00,,---,0.01,VWS V14.01,2013-01-06 20:59:00,
2013-01-06 16:00:00,37.6,29.1,29.98,SW,216,1.0,4.0,71,0.00,,---,0.01,VWS V14.01,2013-01-06 21:00:00,
2013-01-06 16:01:00,38.6,29.7,29.97,West,267,1.0,3.0,70,0.00,,---,0.01,VWS V14.01,2013-01-06 21:01:00,
2013-01-06 16:06:00,38.7,29.8,29.97,West,263,3.0,5.0,70,0.00,,---,0.01,VWS V14.01,2013-01-06 21:06:00,
2013-01-06 16:11:00,38.7,29.8,29.97,West,277,0.0,5.0,70,0.00,,---,0.01,VWS V14.01,2013-01-06 21:11:00,
2013-01-06 16:16:00,38.6,29.7,29.97,West,281,1.0,5.0,70,0.00,,---,0.01,VWS V14.01,2013-01-06 21:16:00,
2013-01-06 16:21:00,38.4,29.5,29.97,WSW,253,0.0,5.0,70,0.00,,---,0.01,VWS V14.01,2013-01-06 21:21:00,
2013-01-06 16:26:00,38.3,29.4,29.98,WSW,238,2.0,5.0,70,0.00,,---,0.01,VWS V14.01,2013-01-06 21:26:00,
2013-01-06 16:30:00,37.4,29.2,29.99,NW,318,0.0,5.0,72,0.00,,---,0.01,VWS V14.01,2013-01-06 21:30:00,
2013-01-06 16:32:00,38.1,29.2,29.98,WNW,288,1.0,2.0,70,0.00,,---,0.01,VWS V14.01,2013-01-06 21:32:00,
2013-01-06 16:37:00,38.0,29.1,29.98,SW,225,0.0,4.0,70,0.00,,---,0.01,VWS V14.01,2013-01-06 21:37:00,
2013-01-06 16:42:00,37.8,29.3,29.98,SW,221,1.0,4.0,71,0.00,,---,0.01,VWS V14.01,2013-01-06 21:42:00,
2013-01-06 16:47:00,37.7,29.2,29.98,West,265,1.0,4.0,71,0.00,,---,0.01,VWS V14.01,2013-01-06 21:47:00,
2013-01-06 16:52:00,37.7,29.2,29.98,West,275,1.0,4.0,71,0.00,,---,0.01,VWS V14.01,2013-01-06 21:52:00,
2013-01-06 16:57:00,37.7,29.2,29.98,WSW,240,2.0,4.0,71,0.00,,---,0.01,VWS V14.01,2013-01-06 21:57:00,
2013-01-06 17:00:00,36.8,29.3,30.00,West,281,0.0,3.0,74,0.01,,---,0.02,VWS V14.01,2013-01-06 22:00:00,
2013-01-06 17:02:00,37.7,29.2,29.98,WSW,256,0.0,2.0,71,0.00,,---,0.01,VWS V14.01,2013-01-06 22:02:00,
2013-01-06 17:07:00,37.6,29.4,29.98,West,276,0.0,5.0,72,0.00,,---,0.01,VWS V14.01,2013-01-06 22:07:00,
2013-01-06 17:12:00,37.6,29.4,29.99,WSW,247,1.0,5.0,72,0.00,,---,0.01,VWS V14.01,2013-01-06 22:12:00,
2013-01-06 17:17:00,37.5,29.3,29.98,West,279,1.0,5.0,72,0.00,,---,0.01,VWS V14.01,2013-01-06 22:17:00,
2013-01-06 17:23:00,37.5,29.3,29.98,WSW,249,1.0,5.0,72,0.00,,---,0.01,VWS V14.01,2013-01-06 22:23:00,
2013-01-06 17:28:00,37.4,29.2,29.99,West,259,0.0,5.0,72,0.00,,---,0.01,VWS V14.01,2013-01-06 22:28:00,
2013-01-06 17:30:00,36.9,29.4,30.00,WNW,286,0.0,3.0,74,0.01,,---,0.02,VWS V14.01,2013-01-06 22:30:00,
2013-01-06 17:33:00,37.4,29.2,29.99,West,277,2.0,2.0,72,0.00,,---,0.01,VWS V14.01,2013-01-06 22:33:00,
2013-01-06 17:38:00,37.3,29.1,29.99,WSW,254,0.0,3.0,72,0.00,,---,0.01,VWS V14.01,2013-01-06 22:38:00,
2013-01-06 17:43:00,37.1,29.3,29.99,West,281,1.0,3.0,73,0.00,,---,0.01,VWS V14.01,2013-01-06 22:43:00,
2013-01-06 17:48:00,36.9,29.1,29.99,West,281,1.0,3.0,73,0.00,,---,0.01,VWS V14.01,2013-01-06 22:48:00,
2013-01-06 17:53:00,36.8,29.0,29.99,West,281,0.0,3.0,73,0.00,,---,0.01,VWS V14.01,2013-01-06 22:53:00,
2013-01-06 17:58:00,36.8,29.0,30.00,West,281,0.0,3.0,73,0.00,,---,0.01,VWS V14.01,2013-01-06 22:58:00,
2013-01-06 18:00:00,36.9,29.4,30.01,WSW,242,2.0,3.0,74,0.02,,---,0.03,VWS V14.01,2013-01-06 23:00:00,
2013-01-06 18:03:00,36.7,29.2,30.00,West,281,0.0,2.0,74,0.01,,---,0.02,VWS V14.01,2013-01-06 23:03:00,
2013-01-06 18:08:00,36.7,29.2,30.00,West,263,0.0,3.0,74,0.01,,---,0.02,VWS V14.01,2013-01-06 23:08:00,
2013-01-06 18:13:00,36.7,29.2,30.00,West,263,1.0,3.0,74,0.01,,---,0.02,VWS V14.01,2013-01-06 23:13:00,
2013-01-06 18:18:00,36.9,29.1,30.00,WSW,237,0.0,3.0,73,0.01,,---,0.02,VWS V14.01,2013-01-06 23:18:00,
2013-01-06 18:23:00,37.0,29.2,30.00,WSW,248,0.0,3.0,73,0.01,,---,0.02,VWS V14.01,2013-01-06 23:23:00,
2013-01-06 18:28:00,36.9,29.1,30.00,WNW,286,0.0,3.0,73,0.01,,---,0.02,VWS V14.01,2013-01-06 23:28:00,
2013-01-06 18:30:00,36.9,29.4,30.01,West,279,0.0,3.0,74,0.01,,---,0.03,VWS V14.01,2013-01-06 23:30:00,
2013-01-06 18:34:00,36.8,29.3,30.00,WSW,257,1.0,1.0,74,0.01,,---,0.02,VWS V14.01,2013-01-06 23:34:00,
2013-01-06 18:39:00,36.8,29.3,30.00,WSW,257,0.0,2.0,74,0.01,,---,0.02,VWS V14.01,2013-01-06 23:39:00,
2013-01-06 18:44:00,36.8,29.3,30.00,WSW,257,1.0,2.0,74,0.01,,---,0.02,VWS V14.01,2013-01-06 23:44:00,
2013-01-06 18:49:00,36.8,29.3,30.00,West,259,0.0,2.0,74,0.01,,---,0.02,VWS V14.01,2013-01-06 23:49:00,
2013-01-06 18:54:00,36.8,29.3,30.01,West,259,0.0,3.0,74,0.02,,---,0.03,VWS V14.01,2013-01-06 23:54:00,
2013-01-06 18:59:00,36.8,29.3,30.01,WSW,242,0.0,3.0,74,0.02,,---,0.03,VWS V14.01,2013-01-06 23:59:00,
2013-01-06 19:00:00,36.7,29.5,30.01,West,280,0.0,3.0,75,0.02,,---,0.04,VWS V14.01,2013-01-07 00:00:00,
2013-01-06 19:04:00,36.9,29.4,30.00,WSW,252,0.0,2.0,74,0.01,,---,0.03,VWS V14.01,2013-01-07 00:04:00,
2013-01-06 19:09:00,36.9,29.4,30.00,WSW,252,1.0,2.0,74,0.01,,---,0.03,VWS V14.01,2013-01-07 00:09:00,
2013-01-06 19:14:00,36.9,29.4,30.01,WSW,252,0.0,3.0,74,0.01,,---,0.03,VWS V14.01,2013-01-07 00:14:00,
2013-01-06 19:19:00,36.8,29.3,30.01,WSW,252,1.0,3.0,74,0.01,,---,0.03,VWS V14.01,2013-01-07 00:19:00,
2013-01-06 19:24:00,36.8,29.3,30.01,West,279,0.0,3.0,74,0.01,,---,0.03,VWS V14.01,2013-01-07 00:24:00,
2013-01-06 19:29:00,36.9,29.4,30.01,West,279,1.0,3.0,74,0.01,,---,0.03,VWS V14.01,2013-01-07 00:29:00,
2013-01-06 19:30:00,36.7,29.5,30.01,West,263,0.0,4.0,75,0.02,,---,0.05,VWS V14.01,2013-01-07 00:30:00,
2013-01-06 19:34:00,36.9,29.4,30.01,West,279,1.0,2.0,74,0.01,,---,0.03,VWS V14.01,2013-01-07 00:34:00,
2013-01-06 19:39:00,36.8,29.6,30.01,West,279,0.0,3.0,75,0.01,,---,0.03,VWS V14.01,2013-01-07 00:39:00,
2013-01-06 19:45:00,36.8,29.6,30.01,WSW,258,0.0,3.0,75,0.02,,---,0.04,VWS V14.01,2013-01-07 00:45:00,
2013-01-06 19:50:00,36.7,29.5,30.01,WNW,301,2.0,3.0,75,0.02,,---,0.04,VWS V14.01,2013-01-07 00:50:00,
2013-01-06 19:55:00,36.7,29.5,30.01,WNW,301,0.0,3.0,75,0.02,,---,0.04,VWS V14.01,2013-01-07 00:55:00,
2013-01-06 20:00:00,36.7,29.5,30.01,West,280,0.0,3.0,75,0.02,,---,0.04,VWS V14.01,2013-01-07 01:00:00,
2013-01-06 20:05:00,36.6,29.4,30.01,West,280,0.0,1.0,75,0.01,,---,0.04,VWS V14.01,2013-01-07 01:05:00,
2013-01-06 20:10:00,36.6,29.4,30.01,West,280,0.0,2.0,75,0.01,,---,0.04,VWS V14.01,2013-01-07 01:10:00,
2013-01-06 20:15:00,36.6,29.4,30.01,West,280,0.0,3.0,75,0.01,,---,0.04,VWS V14.01,2013-01-07 01:15:00,
2013-01-06 20:20:00,36.6,29.4,30.01,West,280,1.0,3.0,75,0.02,,---,0.05,VWS V14.01,2013-01-07 01:20:00,
2013-01-06 20:25:00,36.7,29.5,30.01,West,263,1.0,4.0,75,0.02,,---,0.05,VWS V14.01,2013-01-07 01:25:00,
2013-01-06 20:30:00,36.6,29.8,30.01,West,280,0.0,4.0,76,0.02,,---,0.06,VWS V14.01,2013-01-07 01:30:00,
2013-01-06 20:31:00,36.7,29.9,30.01,West,263,0.0,3.0,76,0.02,,---,0.05,VWS V14.01,2013-01-07 01:31:00,
2013-01-06 20:36:00,36.7,29.5,30.01,West,277,1.0,3.0,75,0.02,,---,0.05,VWS V14.01,2013-01-07 01:36:00,
2013-01-06 20:41:00,36.7,29.5,30.01,West,262,0.0,4.0,75,0.02,,---,0.05,VWS V14.01,2013-01-07 01:41:00,
2013-01-06 20:46:00,36.7,29.5,30.01,WNW,291,0.0,4.0,75,0.02,,---,0.05,VWS V14.01,2013-01-07 01:46:00,
2013-01-06 20:51:00,36.7,29.5,30.01,West,265,0.0,4.0,75,0.02,,---,0.05,VWS V14.01,2013-01-07 01:51:00,
2013-01-06 20:56:00,36.7,29.9,30.01,West,265,1.0,4.0,76,0.02,,---,0.05,VWS V14.01,2013-01-07 01:56:00,
2013-01-06 21:00:00,36.3,29.8,30.02,West,280,0.0,3.0,77,0.02,,---,0.07,VWS V14.01,2013-01-07 02:00:00,
2013-01-06 21:01:00,36.6,29.4,30.01,NW,306,3.0,4.0,75,0.02,,---,0.06,VWS V14.01,2013-01-07 02:01:00,
2013-01-06 21:06:00,36.7,29.5,30.01,West,281,0.0,4.0,75,0.02,,---,0.06,VWS V14.01,2013-01-07 02:06:00,
2013-01-06 21:11:00,36.7,29.9,30.01,West,275,1.0,4.0,76,0.02,,---,0.06,VWS V14.01,2013-01-07 02:11:00,
2013-01-06 21:16:00,36.6,29.8,30.00,NW,309,0.0,4.0,76,0.02,,---,0.06,VWS V14.01,2013-01-07 02:16:00,
2013-01-06 21:21:00,36.6,29.4,30.01,WSW,244,0.0,4.0,75,0.02,,---,0.06,VWS V14.01,2013-01-07 02:21:00,
2013-01-06 21:26:00,36.7,29.5,30.01,West,280,0.0,4.0,75,0.02,,---,0.06,VWS V14.01,2013-01-07 02:26:00,
2013-01-06 21:30:00,36.0,29.5,30.02,West,261,1.0,3.0,77,0.01,,---,0.07,VWS V14.01,2013-01-07 02:30:00,
2013-01-06 21:32:00,36.6,29.8,30.01,West,280,1.0,2.0,76,0.01,,---,0.06,VWS V14.01,2013-01-07 02:32:00,
2013-01-06 21:37:00,36.6,29.8,30.01,West,280,0.0,2.0,76,0.01,,---,0.06,VWS V14.01,2013-01-07 02:37:00,
2013-01-06 21:42:00,36.6,29.8,30.01,West,280,0.0,3.0,76,0.02,,---,0.07,VWS V14.01,2013-01-07 02:42:00,
2013-01-06 21:47:00,36.5,29.7,30.02,West,280,0.0,3.0,76,0.02,,---,0.07,VWS V14.01,2013-01-07 02:47:00,
2013-01-06 21:52:00,36.4,29.6,30.02,West,280,0.0,3.0,76,0.02,,---,0.07,VWS V14.01,2013-01-07 02:52:00,
2013-01-06 21:57:00,36.3,29.5,30.02,West,280,2.0,3.0,76,0.02,,---,0.07,VWS V14.01,2013-01-07 02:57:00,
2013-01-06 22:00:00,35.8,29.3,30.02,West,264,0.0,4.0,77,0.01,,---,0.07,VWS V14.01,2013-01-07 03:00:00,
2013-01-06 22:02:00,36.3,29.5,30.02,West,280,0.0,2.0,76,0.01,,---,0.07,VWS V14.01,2013-01-07 03:02:00,
2013-01-06 22:07:00,36.3,29.8,30.02,NW,317,3.0,3.0,77,0.01,,---,0.07,VWS V14.01,2013-01-07 03:07:00,
2013-01-06 22:12:00,36.3,29.8,30.02,WNW,292,1.0,3.0,77,0.01,,---,0.07,VWS V14.01,2013-01-07 03:12:00,
2013-01-06 22:17:00,36.2,29.7,30.02,WNW,292,2.0,3.0,77,0.01,,---,0.07,VWS V14.01,2013-01-07 03:17:00,
2013-01-06 22:23:00,36.0,29.5,30.02,WNW,284,0.0,3.0,77,0.01,,---,0.07,VWS V14.01,2013-01-07 03:23:00,
2013-01-06 22:28:00,36.0,29.5,30.02,WNW,282,0.0,3.0,77,0.01,,---,0.07,VWS V14.01,2013-01-07 03:28:00,
2013-01-06 22:30:00,35.9,29.7,30.03,WNW,284,0.0,6.0,78,0.00,,---,0.07,VWS V14.01,2013-01-07 03:30:00,
2013-01-06 22:33:00,36.1,29.6,30.02,West,263,2.0,3.0,77,0.01,,---,0.07,VWS V14.01,2013-01-07 03:33:00,
2013-01-06 22:38:00,36.0,29.5,30.02,WSW,255,3.0,4.0,77,0.01,,---,0.07,VWS V14.01,2013-01-07 03:38:00,
2013-01-06 22:43:00,36.0,29.5,30.02,WSW,254,1.0,4.0,77,0.01,,---,0.07,VWS V14.01,2013-01-07 03:43:00,
2013-01-06 22:48:00,35.9,29.4,30.02,West,279,0.0,4.0,77,0.01,,---,0.07,VWS V14.01,2013-01-07 03:48:00,
2013-01-06 22:53:00,35.9,29.4,30.02,WSW,239,0.0,4.0,77,0.01,,---,0.07,VWS V14.01,2013-01-07 03:53:00,
2013-01-06 22:58:00,35.8,29.3,30.03,West,264,0.0,4.0,77,0.01,,---,0.07,VWS V14.01,2013-01-07 03:58:00,
2013-01-06 23:00:00,35.5,29.6,30.04,West,281,0.0,5.0,79,0.00,,---,0.07,VWS V14.01,2013-01-07 04:00:00,
2013-01-06 23:03:00,35.7,29.2,30.03,West,264,0.0,1.0,77,0.00,,---,0.07,VWS V14.01,2013-01-07 04:03:00,
2013-01-06 23:08:00,35.5,29.0,30.03,WNW,295,3.0,3.0,77,0.00,,---,0.07,VWS V14.01,2013-01-07 04:08:00,
2013-01-06 23:13:00,35.5,29.3,30.03,West,270,1.0,3.0,78,0.00,,---,0.07,VWS V14.01,2013-01-07 04:13:00,
2013-01-06 23:18:00,35.6,29.4,30.03,NW,319,1.0,3.0,78,0.00,,---,0.07,VWS V14.01,2013-01-07 04:18:00,
2013-01-06 23:23:00,35.7,29.5,30.03,WSW,250,5.0,5.0,78,0.00,,---,0.07,VWS V14.01,2013-01-07 04:23:00,
2013-01-06 23:29:00,35.9,29.4,30.03,WSW,246,1.0,6.0,77,0.00,,---,0.07,VWS V14.01,2013-01-07 04:29:00,
2013-01-06 23:30:00,34.7,29.5,30.05,WNW,300,3.0,5.0,81,0.00,,---,0.00,VWS V14.01,2013-01-07 04:30:00,
2013-01-06 23:34:00,35.9,29.7,30.03,WNW,283,1.0,5.0,78,0.00,,---,0.07,VWS V14.01,2013-01-07 04:34:00,
2013-01-06 23:39:00,35.9,29.7,30.04,WNW,283,2.0,5.0,78,0.00,,---,0.07,VWS V14.01,2013-01-07 04:39:00,
2013-01-06 23:44:00,35.7,29.5,30.04,WNW,284,1.0,5.0,78,0.00,,---,0.07,VWS V14.01,2013-01-07 04:44:00,
2013-01-06 23:49:00,35.6,29.4,30.04,WNW,284,0.0,5.0,78,0.00,,---,0.07,VWS V14.01,2013-01-07 04:49:00,
2013-01-06 23:54:00,35.5,29.6,30.04,NW,316,2.0,5.0,79,0.00,,---,0.07,VWS V14.01,2013-01-07 04:54:00,
2013-01-06 23:59:00,35.5,29.6,30.04,West,281,0.0,5.0,79,0.00,,---,0.07,VWS V14.01,2013-01-07 04:59:00,